Okara Weather



Okara's Current Weather

Temprature 18.05o clear sky

clear sky

Rain: 0 %

Min Temprature18.05o
Max Temprature18.05o
Humidity26
Wind Speed1.1 m/h
Sun Rise06:18:01
Sun Set17:21:43
Current Time: 28-Oct-2020 03:58:56
Lat/Lon: 30.81, 73.45




Okara's Geo Location



Okara's Weather Forecast

Time Overall Temp Min Temp Max Temp Humidity Wind Speed Rain
28-Oct-2020 (Wed)
05:00:00 clear sky 18.170 17.870 18.170 26 1.56 m/h 0 %
08:00:00 clear sky 21.470 21.470 22.300 21 2.11 m/h 0 %
11:00:00 clear sky 30.820 30.820 31.670 12 3.23 m/h 0 %
14:00:00 clear sky 33.750 33.750 33.870 10 2.41 m/h 0 %
17:00:00 clear sky 28.100 28.100 28.100 14 0.79 m/h 0 %
20:00:00 clear sky 22.860 22.860 22.860 20 2.6 m/h 0 %
23:00:00 clear sky 20.240 20.240 20.240 23 1.62 m/h 0 %
29-Oct-2020 (Thu)
02:00:00 clear sky 18.730 18.730 18.730 26 2.07 m/h 0 %
05:00:00 clear sky 17.810 17.810 17.810 27 2.32 m/h 0 %
08:00:00 clear sky 22.380 22.380 22.380 20 2.94 m/h 0 %
11:00:00 clear sky 31.860 31.860 31.860 12 3.7 m/h 0 %
14:00:00 clear sky 34.540 34.540 34.540 10 3.23 m/h 0 %
17:00:00 clear sky 29.050 29.050 29.050 14 1.56 m/h 0 %
20:00:00 clear sky 22.310 22.310 22.310 21 1.42 m/h 0 %
23:00:00 clear sky 21.200 21.200 21.200 22 1.8 m/h 0 %
30-Oct-2020 (Fri)
02:00:00 clear sky 18.730 18.730 18.730 26 1.68 m/h 0 %
05:00:00 clear sky 17.030 17.030 17.030 29 1.95 m/h 0 %
08:00:00 clear sky 21.280 21.280 21.280 22 2.19 m/h 0 %
11:00:00 clear sky 30.990 30.990 30.990 12 2.43 m/h 0 %
14:00:00 clear sky 33.760 33.760 33.760 10 3.02 m/h 0 %
17:00:00 clear sky 28.470 28.470 28.470 13 2.72 m/h 0 %
20:00:00 clear sky 22.550 22.550 22.550 19 2.61 m/h 0 %
23:00:00 clear sky 19.950 19.950 19.950 22 2.15 m/h 0 %
31-Oct-2020 (Sat)
02:00:00 clear sky 18.070 18.070 18.070 25 2.63 m/h 0 %
05:00:00 clear sky 16.960 16.960 16.960 27 2.02 m/h 0 %
08:00:00 clear sky 21.930 21.930 21.930 19 0.97 m/h 0 %
11:00:00 clear sky 31.190 31.190 31.190 11 2.45 m/h 0 %
14:00:00 clear sky 33.610 33.610 33.610 9 3.99 m/h 0 %
17:00:00 clear sky 28.000 28.000 28.000 13 2.54 m/h 0 %
20:00:00 clear sky 22.050 22.050 22.050 19 2.76 m/h 0 %
23:00:00 clear sky 19.400 19.400 19.400 23 2.58 m/h 0 %
01-Nov-2020 (Sun)
02:00:00 clear sky 16.740 16.740 16.740 27 0.4 m/h 0 %
05:00:00 clear sky 15.720 15.720 15.720 29 0.59 m/h 0 %
08:00:00 clear sky 21.430 21.430 21.430 20 1.12 m/h 0 %
11:00:00 clear sky 32.250 32.250 32.250 10 0.94 m/h 0 %
14:00:00 clear sky 33.520 33.520 33.520 9 3.48 m/h 0 %
17:00:00 clear sky 27.130 27.130 27.130 13 1.68 m/h 0 %
20:00:00 clear sky 21.110 21.110 21.110 20 1.51 m/h 0 %
23:00:00 clear sky 18.340 18.340 18.340 24 0.38 m/h 0 %
02-Nov-2020 (Mon)
02:00:00 clear sky 16.940 16.940 16.940 26 0.53 m/h 0 %

Famous Cities (60)